Penn Valley, CA

11:28 PM PDT on October 20, 2014 (GMT -0700)
Yuba County | Change Station
CLOSE
Current Station
Airport
Location: Marysville,
Elevation: 59 ft
Nearby Weather Stations

Elev 59 ft 39.10 °N, 121.57 °W | Updated 35 minutes ago

Clear
Clear
56 °F
Feels Like 56 °F
N
6
Wind Variable Wind from SSE

Today
High -- | Low -- °F
--% Chance of Precip.
Yesterday
High -- | Low -- °F
Precip. -- in
7:19 AM 6:18 PM
Waning Crescent, 7% visible
Pressure 30.02 in
Visibility 10.0 miles
Clouds Clear
Dew Point 45 °F
Humidity 67%
Rainfall 0.07 in
Snow Depth Not available.
UV 0 out of 12
Pollen 4.00 out of 12
Ozone Good
PM2.5 Good
Flu Activity Sporadic
METAR KMYV 210553Z AUTO 15005KT 10SM CLR 13/07 A3001 RMK AO2 SLP165 T01330072 10211 20122 53023

More Conditions Fewer Conditions

Pressure 30.02 in
Visibility 10.0 miles
Clouds Clear
Dew Point 45 °F
Humidity 67%
Rainfall 0.07 in
Snow Depth Not available.
UV 0 out of 12
Pollen 4.00 out of 12
Ozone Good
PM2.5 Good
Flu Activity Sporadic
METAR KMYV 210553Z AUTO 15005KT 10SM CLR 13/07 A3001 RMK AO2 SLP165 T01330072 10211 20122 53023

More Conditions Fewer Conditions

10-Day Weather Forecast

Almanac

Astronomy

Oct. 20, 2014 Rise Set
Actual Time 7:19 AM PDT 6:18 PM PDT
Civil Twilight 6:52 AM PDT 6:45 PM PDT
Nautical Twilight 6:21 AM PDT 7:17 PM PDT
Astronomical Twilight 5:50 AM PDT 7:47 PM PDT
Moon 4:14 AM PDT (10/20) 4:43 PM PDT (10/20)
Length of Visible Light 11h 53m
Length of Day
10h 58m
Tomorrow will be 2m 24s shorter.
Waning Crescent, 7% of the Moon is Illuminated
Oct 21
Waning Crescent
Oct 23
New
Oct 30
First Quarter
Nov 6
Full
Nov 14
Last Quarter

Community

WunderPhotos

Upload Photos

1,763,618 photos uploaded!

Nearby

Air Quality

  Air Quality AQ Index Pollutant
Yesterday Moderate
OZONE
Yesterday Good
PM2.5
Current Good
PM2.5
Current Good
OZONE
Monday Good
OZONE
Tuesday Good
OZONE
Wednesday Good
OZONE
Thursday Good
OZONE
Friday Good
OZONE
Saturday Good
OZONE

Snow Depth

Station Depth Elevation
CSS Lab 1 in 6900 ft
Independence Lake 0 in 8450 ft
Squaw Valley 0 in 8200 ft
Independence Camp 0 in 7000 ft
Ward Creek #3 1 in 6750 ft

Earthquake Activity

City Distance Mag. Time & Date
Smith Valley, Nevada 100 miles 2.9 10:59 AM PDT
2014-10-18
East Foothills, California 130 miles 2.6 8:16 AM PDT
2014-10-18
Minimum magnitude displayed is 2.5.

Coastal Water Temperatures

Place Temperature
No Stations Reporting

Nearby Weather Stations